Time;durP1;ratioP1;P1;durP2;ratioP2;P2;SDS_P1;SDS_P2;PMS_P1;PMS_P2;Temp;Humidity;BMP_temperature;BMP_pressure;BME280_temperature;BME280_humidity;BME280_pressure;Samples;Min_cycle;Max_cycle;Signal;HPM_P1;HPM_P2
2021/11/25 05:26:28;;;;;;;;;62.50;46.00;;;;;5.21;49.20;98551.41;6130042;28;97677;-66
2021/11/25 05:29:32;;;;;;;;;64.60;48.00;;;;;5.24;48.91;98547.50;6156288;28;96686;-68
2021/11/25 05:32:35;;;;;;;;;57.80;46.00;;;;;5.26;49.14;98547.31;6129214;28;96772;-69
2021/11/25 05:35:38;;;;;;;;;59.20;46.20;;;;;5.29;49.03;98549.59;6161915;28;97264;-69
2021/11/25 05:38:42;;;;;;;;;61.00;46.60;;;;;5.28;48.79;98548.75;6143777;28;96773;-64
2021/11/25 05:41:47;;;;;;;;;61.40;47.00;;;;;5.31;48.87;98539.53;6133858;28;97439;-68
2021/11/25 05:44:50;;;;;;;;;61.25;45.25;;;;;5.32;48.80;98539.34;6156282;28;97135;-66
2021/11/25 05:47:54;;;;;;;;;57.00;45.00;;;;;5.34;48.39;98539.13;6143578;28;98639;-69
2021/11/25 05:50:58;;;;;;;;;60.00;47.00;;;;;5.34;48.68;98536.47;6129454;28;97385;-66
2021/11/25 05:54:01;;;;;;;;;60.80;46.00;;;;;5.37;48.73;98531.56;6153833;28;98175;-66
2021/11/25 05:57:07;;;;;;;;;61.00;47.00;;;;;5.43;48.81;98532.59;6158697;28;97304;-65
2021/11/25 06:00:13;;;;;;;;;61.00;47.00;;;;;5.39;48.78;98524.16;6161172;28;96735;-65
2021/11/25 06:03:17;;;;;;;;;59.75;46.00;;;;;5.43;48.98;98527.25;6160522;28;97163;-64
2021/11/25 06:06:20;;;;;;;;;61.00;46.00;;;;;5.45;48.57;98530.56;6137768;28;97106;-69
2021/11/25 06:09:24;;;;;;;;;60.80;46.20;;;;;5.45;48.60;98526.06;6141286;28;98443;-66
2021/11/25 06:12:28;;;;;;;;;57.20;46.20;;;;;5.43;48.53;98520.06;6158128;28;97144;-65
2021/11/25 06:15:32;;;;;;;;;58.20;45.80;;;;;5.36;48.82;98515.72;6154701;28;98573;-67
2021/11/25 06:18:35;;;;;;;;;60.50;46.00;;;;;5.32;48.72;98509.97;6161137;28;97142;-68
2021/11/25 06:21:39;;;;;;;;;58.20;46.00;;;;;5.35;48.93;98506.03;6161078;28;97690;-67
2021/11/25 06:24:47;;;;;;;;;56.20;44.20;;;;;5.39;48.64;98509.97;6161599;28;97480;-66
2021/11/25 06:27:52;;;;;;;;;56.40;45.00;;;;;5.44;48.50;98507.53;6160890;28;97476;-64
2021/11/25 06:30:55;;;;;;;;;55.50;44.50;;;;;5.48;48.76;98506.09;6139527;28;96977;-64
2021/11/25 06:33:58;;;;;;;;;61.60;47.40;;;;;5.53;48.40;98507.16;6142678;28;96730;-65
2021/11/25 06:37:02;;;;;;;;;58.80;45.40;;;;;5.59;48.14;98505.53;6161523;28;97735;-67
2021/11/25 06:40:07;;;;;;;;;60.60;47.40;;;;;5.65;48.29;98500.25;6156081;28;98098;-66
2021/11/25 06:43:11;;;;;;;;;60.60;46.00;;;;;5.97;47.82;98500.56;6143680;28;100286;-66
2021/11/25 06:46:15;;;;;;;;;55.25;44.25;;;;;6.66;46.95;98508.28;6162094;28;97485;-66
2021/11/25 06:49:18;;;;;;;;;57.00;44.00;;;;;7.36;45.62;98503.06;6161102;28;96574;-64
2021/11/25 06:52:21;;;;;;;;;54.40;43.60;;;;;8.37;44.00;98499.72;6140010;28;97209;-67
2021/11/25 06:55:25;;;;;;;;;54.50;44.00;;;;;9.10;42.02;98500.78;6161206;28;97501;-68
2021/11/25 06:58:30;;;;;;;;;56.25;43.75;;;;;9.74;40.77;98492.22;6172155;28;96854;-67
2021/11/25 07:01:34;;;;;;;;;61.40;45.60;;;;;10.97;38.76;98484.41;6139470;28;97348;-67
2021/11/25 07:04:37;;;;;;;;;51.60;41.20;;;;;12.25;36.69;98495.00;6144388;28;97010;-67
2021/11/25 07:07:42;;;;;;;;;56.40;44.00;;;;;13.34;34.57;98500.91;6160821;28;96595;-67
2021/11/25 07:10:45;;;;;;;;;54.40;43.00;;;;;14.37;32.90;98502.75;6175038;28;97177;-65
2021/11/25 07:13:50;;;;;;;;;56.00;44.00;;;;;15.27;31.53;98501.09;6147982;28;97467;-67
2021/11/25 07:16:53;;;;;;;;;53.60;43.00;;;;;16.18;30.31;98496.97;6161291;28;97415;-67
2021/11/25 07:19:56;;;;;;;;;52.40;41.40;;;;;16.93;29.31;98498.22;6138973;28;98411;-67
2021/11/25 07:23:00;;;;;;;;;52.40;42.00;;;;;17.68;27.87;98486.44;6143562;28;98072;-67
2021/11/25 07:26:07;;;;;;;;;53.60;43.00;;;;;18.21;26.67;98485.94;6143424;28;97058;-65
2021/11/25 07:29:11;;;;;;;;;57.00;44.00;;;;;18.62;26.13;98484.63;6141007;28;97304;-67
2021/11/25 07:32:15;;;;;;;;;55.20;44.00;;;;;18.90;25.30;98463.94;6159300;28;97399;-67
2021/11/25 07:35:19;;;;;;;;;55.00;42.75;;;;;19.43;25.11;98492.97;6162478;28;96914;-67
2021/11/25 07:38:23;;;;;;;;;55.25;42.75;;;;;19.78;24.80;98486.34;6152639;28;96995;-65
2021/11/25 07:41:27;;;;;;;;;53.40;43.00;;;;;20.16;24.69;98472.72;6161487;28;97928;-66
2021/11/25 07:44:32;;;;;;;;;53.60;42.00;;;;;20.49;24.03;98479.97;6160640;28;97071;-65
2021/11/25 07:47:37;;;;;;;;;55.50;44.00;;;;;20.70;23.46;98470.34;6160860;28;96933;-67
2021/11/25 07:50:41;;;;;;;;;55.00;43.00;;;;;20.76;22.84;98465.59;6157899;28;97423;-67
2021/11/25 07:53:44;;;;;;;;;56.50;44.50;;;;;21.21;22.79;98471.47;6156968;28;97078;-67
2021/11/25 07:56:48;;;;;;;;;54.80;44.20;;;;;21.60;22.68;98469.88;6164538;28;98542;-66
2021/11/25 07:59:52;;;;;;;;;55.00;44.00;;;;;22.19;21.67;98464.63;6145628;28;97567;-64
2021/11/25 08:02:57;;;;;;;;;56.00;44.40;;;;;22.52;21.27;98459.78;6160064;28;97454;-66
2021/11/25 08:06:01;;;;;;;;;54.80;43.80;;;;;22.87;21.48;98453.47;6165386;28;98714;-63
2021/11/25 08:09:04;;;;;;;;;55.60;44.00;;;;;23.12;20.81;98446.50;6154208;28;96442;-66
2021/11/25 08:12:09;;;;;;;;;55.40;44.00;;;;;23.27;20.68;98446.94;6152235;28;97405;-66
2021/11/25 08:15:14;;;;;;;;;55.00;44.00;;;;;23.48;20.66;98440.91;6165656;28;97905;-66
2021/11/25 08:18:18;;;;;;;;;53.20;43.00;;;;;23.88;20.68;98441.72;6160693;28;97089;-67
2021/11/25 08:21:23;;;;;;;;;56.00;45.00;;;;;24.36;19.78;98439.75;6124077;28;98021;-64
2021/11/25 08:24:27;;;;;;;;;56.00;44.00;;;;;24.81;19.12;98437.50;6165483;28;97201;-67
2021/11/25 08:27:30;;;;;;;;;52.33;43.00;;;;;25.30;19.22;98438.09;6164416;28;99198;-66
2021/11/25 08:30:36;;;;;;;;;54.60;44.00;;;;;25.72;18.42;98439.91;6150631;28;96535;-64
2021/11/25 08:33:39;;;;;;;;;56.00;45.40;;;;;25.86;18.16;98431.38;6165245;28;97393;-67
2021/11/25 08:36:43;;;;;;;;;53.40;44.00;;;;;26.10;17.89;98434.34;6131487;28;99135;-69
2021/11/25 08:39:46;;;;;;;;;53.25;43.25;;;;;26.51;17.56;98443.84;6163845;28;96540;-67
2021/11/25 08:42:51;;;;;;;;;54.00;44.00;;;;;26.69;17.26;98432.31;6152657;28;98078;-67
2021/11/25 08:45:56;;;;;;;;;53.40;43.60;;;;;26.94;17.24;98438.78;6147328;28;97068;-67
2021/11/25 08:49:00;;;;;;;;;56.00;43.00;;;;;27.14;16.64;98426.88;6162331;28;97465;-68
2021/11/25 08:52:04;;;;;;;;;51.80;42.00;;;;;27.38;16.39;98423.38;6163353;28;97098;-67
2021/11/25 08:55:09;;;;;;;;;49.60;40.00;;;;;27.42;16.31;98421.53;6164214;28;96955;-64
2021/11/25 08:58:12;;;;;;;;;53.00;43.00;;;;;27.55;16.43;98417.66;6163702;28;96824;-68
2021/11/25 09:01:17;;;;;;;;;52.20;42.80;;;;;27.61;16.38;98420.22;6158826;28;97464;-67
2021/11/25 09:04:21;;;;;;;;;49.40;40.00;;;;;27.68;16.43;98410.16;6143353;28;98606;-67
2021/11/25 09:07:25;;;;;;;;;49.00;40.50;;;;;27.69;16.18;98408.22;6146566;28;97739;-68
2021/11/25 09:10:29;;;;;;;;;50.00;41.00;;;;;27.64;16.38;98416.75;6139969;28;97482;-67
2021/11/25 09:13:32;;;;;;;;;48.40;39.40;;;;;27.61;15.62;98417.44;6146658;28;98653;-68
2021/11/25 09:16:37;;;;;;;;;53.00;41.00;;;;;27.65;16.12;98415.59;6152154;28;98468;-68
2021/11/25 09:19:40;;;;;;;;;53.00;42.00;;;;;27.67;16.46;98400.25;6163764;28;97102;-68
2021/11/25 09:22:44;;;;;;;;;52.00;41.00;;;;;27.71;15.87;98405.91;6130039;28;97991;-68
2021/11/25 09:25:50;;;;;;;;;47.60;39.60;;;;;27.63;16.19;98376.34;6146235;28;97826;-65
2021/11/25 09:28:57;;;;;;;;;51.40;41.80;;;;;27.75;16.17;98379.94;6159485;28;97534;-66
2021/11/25 09:32:03;;;;;;;;;48.75;40.25;;;;;27.95;16.02;98387.28;6142718;28;98150;-65
2021/11/25 09:35:07;;;;;;;;;51.60;40.60;;;;;27.98;15.95;98377.50;6146132;28;98567;-66
2021/11/25 09:38:12;;;;;;;;;49.00;40.00;;;;;27.82;15.73;98373.81;6147825;28;96806;-67
2021/11/25 09:41:16;;;;;;;;;47.00;38.50;;;;;27.95;15.58;98367.91;6165445;28;97118;-65
2021/11/25 09:44:19;;;;;;;;;49.00;39.00;;;;;28.15;16.06;98362.63;6163772;28;97215;-68
2021/11/25 09:47:25;;;;;;;;;45.25;38.50;;;;;28.16;16.17;98353.13;6143228;28;96739;-68
2021/11/25 09:50:31;;;;;;;;;48.50;37.00;;;;;27.99;15.97;98354.19;6157670;28;97433;-65
2021/11/25 09:53:35;;;;;;;;;47.40;39.20;;;;;27.91;16.10;98344.00;6118005;28;96943;-68
2021/11/25 09:56:39;;;;;;;;;46.00;38.00;;;;;28.13;16.31;98345.50;6140317;28;97292;-68
2021/11/25 09:59:42;;;;;;;;;49.20;40.00;;;;;28.04;16.00;98339.28;6177416;28;97902;-67
2021/11/25 10:02:47;;;;;;;;;49.40;41.40;;;;;28.01;16.36;98324.94;6161622;28;97598;-65
2021/11/25 10:05:53;;;;;;;;;49.00;39.60;;;;;28.11;15.97;98322.84;6162258;28;97114;-68
2021/11/25 10:08:57;;;;;;;;;50.00;40.00;;;;;28.09;16.28;98322.41;6164138;28;96892;-68
2021/11/25 10:12:01;;;;;;;;;49.80;39.00;;;;;28.01;15.98;98329.69;6145794;28;96783;-65
2021/11/25 10:15:25;;;;;;;;;45.60;38.40;;;;;27.91;16.15;98317.13;6159642;28;97586;-65
2021/11/25 10:18:35;;;;;;;;;45.40;36.00;;;;;27.79;16.18;98305.25;6144272;28;96788;-65
2021/11/25 10:21:42;;;;;;;;;46.20;37.60;;;;;27.71;16.19;98306.22;6163205;28;97503;-65
2021/11/25 10:24:48;;;;;;;;;45.00;37.75;;;;;27.86;15.81;98292.44;6158359;28;97031;-65
2021/11/25 10:27:51;;;;;;;;;45.25;36.25;;;;;27.94;15.44;98299.81;6144968;28;97224;-68
2021/11/25 10:31:00;;;;;;;;;42.00;34.60;;;;;27.92;15.75;98290.22;6145122;28;99469;-65
2021/11/25 10:34:11;;;;;;;;;46.25;37.50;;;;;27.71;16.35;98278.50;6149152;28;97456;-67
2021/11/25 10:37:36;;;;;;;;;45.00;36.00;;;;;27.69;16.58;98261.44;6147892;28;97109;-65
2021/11/25 10:40:39;;;;;;;;;48.00;38.00;;;;;27.70;15.79;98265.81;6145004;28;97184;-65
2021/11/25 10:43:43;;;;;;;;;44.00;37.00;;;;;27.59;16.38;98251.63;6155466;28;96500;-65
2021/11/25 10:46:52;;;;;;;;;45.00;37.25;;;;;27.72;16.48;98246.88;6138882;28;98208;-67
2021/11/25 10:49:58;;;;;;;;;47.60;36.60;;;;;27.80;16.02;98240.41;6162671;28;96416;-65
2021/11/25 10:53:04;;;;;;;;;41.60;34.80;;;;;27.72;16.13;98208.91;6144599;28;97446;-69
2021/11/25 10:56:08;;;;;;;;;45.00;36.50;;;;;27.96;16.07;98219.09;6126673;28;98999;-68
2021/11/25 10:59:14;;;;;;;;;46.00;36.00;;;;;28.05;16.05;98217.00;6144476;28;96750;-65
2021/11/25 11:02:31;;;;;;;;;45.00;35.20;;;;;28.20;15.70;98207.94;6150251;28;96811;-69
2021/11/25 11:05:49;;;;;;;;;45.60;36.00;;;;;28.05;16.05;98196.81;6133375;28;97059;-65
2021/11/25 11:08:52;;;;;;;;;38.80;32.00;;;;;28.09;15.17;98194.94;6140413;28;98294;-65
2021/11/25 11:12:26;;;;;;;;;37.00;33.00;;;;;27.99;15.44;98199.81;6152771;28;97629;-65
2021/11/25 11:15:51;;;;;;;;;40.00;32.20;;;;;27.89;15.65;98189.25;6162159;28;97331;-68
2021/11/25 11:18:57;;;;;;;;;37.80;32.40;;;;;27.83;15.78;98173.22;6162030;28;98052;-65
2021/11/25 11:22:12;;;;;;;;;39.00;33.00;;;;;27.82;15.67;98169.63;6159867;28;97398;-67
2021/11/25 11:25:20;;;;;;;;;39.40;33.00;;;;;27.61;16.04;98169.03;6175842;28;97438;-65
2021/11/25 11:28:25;;;;;;;;;39.20;34.00;;;;;27.54;15.82;98168.81;6160927;28;97063;-67
2021/11/25 11:31:32;;;;;;;;;43.20;33.60;;;;;27.48;16.32;98168.22;6144626;28;97578;-68
2021/11/25 11:34:35;;;;;;;;;41.80;34.80;;;;;27.47;16.50;98147.22;6175874;28;97437;-68
2021/11/25 11:37:42;;;;;;;;;38.60;33.60;;;;;27.36;16.52;98135.03;6149384;28;97114;-68
2021/11/25 11:40:45;;;;;;;;;40.00;34.00;;;;;27.30;16.52;98130.91;6161715;28;96586;-65
2021/11/25 11:43:49;;;;;;;;;47.00;38.00;;;;;27.20;16.77;98119.50;6175539;28;97623;-65
2021/11/25 11:46:56;;;;;;;;;47.00;36.00;;;;;27.01;16.76;98117.34;6156788;28;96942;-65
2021/11/25 11:50:02;;;;;;;;;45.00;38.00;;;;;26.84;16.92;98103.72;6144117;28;96904;-68
2021/11/25 11:53:09;;;;;;;;;46.00;36.00;;;;;26.59;17.10;98106.50;6143030;28;98154;-68
2021/11/25 11:56:16;;;;;;;;;43.00;35.25;;;;;26.30;17.66;98101.97;6141543;28;97787;-65
2021/11/25 11:59:21;;;;;;;;;44.80;35.80;;;;;26.35;17.91;98100.94;6134590;28;97161;-67
2021/11/25 12:02:38;;;;;;;;;41.60;35.00;;;;;26.29;17.79;98102.34;6155442;28;97497;-65
2021/11/25 12:05:50;;;;;;;;;47.00;36.00;;;;;26.20;17.85;98083.06;6133119;28;97634;-64
2021/11/25 12:08:55;;;;;;;;;46.40;37.00;;;;;26.13;17.97;98069.00;6161181;28;97166;-68
2021/11/25 12:12:07;;;;;;;;;43.60;35.60;;;;;26.04;17.95;98064.75;6154984;28;97274;-68
2021/11/25 12:15:18;;;;;;;;;39.00;33.00;;;;;26.05;18.22;98064.38;6114531;28;97498;-68
2021/11/25 12:18:32;;;;;;;;;40.40;35.20;;;;;25.98;18.15;98057.81;6143121;28;97356;-67
2021/11/25 12:21:42;;;;;;;;;39.40;34.20;;;;;25.85;18.37;98049.50;6155031;28;98200;-67
2021/11/25 12:24:50;;;;;;;;;41.00;33.00;;;;;25.56;18.46;98046.88;6161120;28;96565;-64
2021/11/25 12:28:25;;;;;;;;;37.75;33.00;;;;;25.26;18.98;98034.34;6134634;28;99930;-70
2021/11/25 12:31:42;;;;;;;;;41.00;33.75;;;;;24.83;19.48;98026.34;6135395;28;97992;-67
2021/11/25 12:34:46;;;;;;;;;38.00;33.00;;;;;24.58;19.89;98030.94;6137057;28;97467;-67
2021/11/25 12:38:00;;;;;;;;;37.80;33.80;;;;;24.24;19.78;98018.13;6136517;28;97829;-65
2021/11/25 12:41:25;;;;;;;;;46.00;36.00;;;;;23.80;20.79;98016.66;6129869;28;97975;-68
2021/11/25 12:44:28;;;;;;;;;45.00;36.00;;;;;23.52;20.98;98016.25;6133364;28;96443;-67
2021/11/25 12:47:31;;;;;;;;;44.00;35.60;;;;;23.26;21.17;98012.72;6128372;28;97089;-65
2021/11/25 12:50:37;;;;;;;;;43.40;34.00;;;;;23.02;21.00;98001.44;6134685;28;97243;-65
2021/11/25 12:53:46;;;;;;;;;40.00;33.60;;;;;22.77;21.58;97992.84;6139352;28;97293;-67
2021/11/25 12:56:51;;;;;;;;;45.00;36.20;;;;;22.61;21.66;97982.63;6135100;28;100259;-64
2021/11/25 12:59:54;;;;;;;;;43.60;35.00;;;;;22.21;21.94;97985.47;6130864;28;97582;-69
2021/11/25 13:03:02;;;;;;;;;42.60;33.60;;;;;21.88;22.62;97986.94;6138386;28;97875;-64
2021/11/25 13:06:05;;;;;;;;;40.00;35.00;;;;;21.77;23.13;97980.91;6136757;28;97082;-64
2021/11/25 13:09:11;;;;;;;;;43.40;33.20;;;;;21.56;22.82;97975.16;6129581;28;96471;-68
2021/11/25 13:12:16;;;;;;;;;40.00;34.67;;;;;21.37;23.30;97976.50;6133333;28;96695;-67
2021/11/25 13:15:19;;;;;;;;;42.75;36.00;;;;;21.21;23.83;97969.81;6136694;28;97458;-65
2021/11/25 13:18:23;;;;;;;;;37.00;33.20;;;;;21.00;23.72;97962.06;6137355;28;97443;-64
2021/11/25 13:21:29;;;;;;;;;40.60;33.00;;;;;20.82;24.00;97954.03;6138068;28;97362;-65
2021/11/25 13:24:36;;;;;;;;;42.00;34.00;;;;;20.70;24.15;97958.13;6136754;28;97057;-64
2021/11/25 13:27:41;;;;;;;;;39.40;33.00;;;;;20.52;24.28;97955.56;6147782;28;96996;-64
2021/11/25 13:30:44;;;;;;;;;41.00;35.00;;;;;20.11;24.92;97953.66;6124649;28;98087;-67
2021/11/25 13:33:56;;;;;;;;;44.00;36.00;;;;;19.66;25.24;97946.38;6161607;28;97343;-65
2021/11/25 13:37:00;;;;;;;;;39.25;33.00;;;;;19.19;26.02;97950.25;6161427;28;97068;-67
2021/11/25 13:40:07;;;;;;;;;40.00;33.00;;;;;18.73;26.33;97944.72;6162287;28;98144;-64
2021/11/25 13:43:13;;;;;;;;;40.40;33.00;;;;;18.19;27.15;97943.31;6152497;28;97950;-67
2021/11/25 13:46:17;;;;;;;;;38.00;32.80;;;;;17.80;27.67;97945.44;6162665;28;97199;-66
2021/11/25 13:49:30;;;;;;;;;44.40;35.00;;;;;17.41;28.37;97935.50;6159119;28;98077;-67
2021/11/25 13:52:36;;;;;;;;;38.20;32.00;;;;;17.08;29.08;97930.94;6158991;28;96609;-66
2021/11/25 13:55:40;;;;;;;;;42.40;33.40;;;;;16.80;29.55;97938.81;6157701;28;97523;-69
2021/11/25 13:58:45;;;;;;;;;40.40;32.00;;;;;16.67;29.92;97938.63;6159013;28;97390;-66
2021/11/25 14:01:50;;;;;;;;;37.60;31.00;;;;;16.59;30.23;97937.34;6157356;28;97300;-66
2021/11/25 14:04:55;;;;;;;;;40.00;33.20;;;;;16.55;30.17;97919.91;6155283;28;97506;-69
2021/11/25 14:08:07;;;;;;;;;39.00;32.20;;;;;16.46;30.29;97919.72;6159481;28;97199;-68
2021/11/25 14:11:10;;;;;;;;;35.60;31.00;;;;;16.43;30.55;97919.44;6163300;28;97520;-66
2021/11/25 14:14:15;;;;;;;;;40.40;33.00;;;;;16.46;30.90;97921.63;6136549;28;97735;-66
2021/11/25 14:17:22;;;;;;;;;40.00;33.60;;;;;16.35;31.13;97920.88;6152491;28;96860;-68
2021/11/25 14:20:29;;;;;;;;;44.40;35.00;;;;;16.23;31.26;97922.31;6154074;28;97424;-68
2021/11/25 14:23:32;;;;;;;;;39.40;34.00;;;;;16.11;31.16;97917.22;6154081;28;97594;-65
2021/11/25 14:27:00;;;;;;;;;38.00;33.00;;;;;15.92;31.50;97918.97;6143280;28;96743;-68
2021/11/25 14:30:11;;;;;;;;;44.00;34.33;;;;;15.69;32.16;97911.44;6152437;28;97620;-68
2021/11/25 14:33:15;;;;;;;;;42.50;35.25;;;;;15.45;32.86;97913.94;6152060;28;97261;-65
2021/11/25 14:36:23;;;;;;;;;45.40;36.00;;;;;15.04;33.13;97908.63;6135290;28;99481;-68
2021/11/25 14:39:27;;;;;;;;;46.40;36.00;;;;;14.99;33.42;97905.91;6142186;28;98519;-66
2021/11/25 14:42:30;;;;;;;;;41.60;35.00;;;;;14.79;33.89;97896.97;6130629;28;100264;-66
2021/11/25 14:45:37;;;;;;;;;43.50;34.50;;;;;14.62;34.21;97899.97;6134042;28;96862;-66
2021/11/25 14:48:40;;;;;;;;;41.50;35.00;;;;;14.43;34.38;97910.53;6152967;28;97521;-68
2021/11/25 14:51:43;;;;;;;;;40.50;34.00;;;;;14.25;34.93;97908.31;6160862;28;97479;-66
2021/11/25 14:55:09;;;;;;;;;42.00;34.60;;;;;13.99;35.37;97904.75;6153819;28;97708;-65
2021/11/25 14:58:12;;;;;;;;;39.80;33.00;;;;;13.79;35.75;97902.78;6138094;28;97705;-65
2021/11/25 15:01:18;;;;;;;;;44.50;36.25;;;;;13.65;36.12;97904.38;6137372;28;98902;-65
2021/11/25 15:04:23;;;;;;;;;41.00;34.00;;;;;13.51;36.41;97894.28;6152279;28;98195;-68
2021/11/25 15:07:27;;;;;;;;;40.75;35.00;;;;;13.32;36.81;97889.34;6153460;28;97352;-68
2021/11/25 15:10:33;;;;;;;;;47.00;35.00;;;;;13.10;37.17;97879.69;6153525;28;97531;-67
2021/11/25 15:13:36;;;;;;;;;43.00;35.00;;;;;12.95;37.22;97883.16;6134629;28;98567;-65
2021/11/25 15:16:42;;;;;;;;;39.60;32.00;;;;;12.77;37.60;97884.38;6153875;28;97412;-65
2021/11/25 15:19:46;;;;;;;;;46.80;35.00;;;;;12.63;37.91;97891.31;6135128;28;97741;-65
2021/11/25 15:22:49;;;;;;;;;40.80;34.00;;;;;12.49;37.76;97890.13;6153641;28;98034;-65
2021/11/25 15:25:53;;;;;;;;;45.00;35.00;;;;;12.40;37.97;97884.38;6151602;28;97398;-65
2021/11/25 15:28:57;;;;;;;;;39.25;34.25;;;;;12.27;38.42;97879.38;6136687;28;97033;-65
2021/11/25 15:32:02;;;;;;;;;41.00;35.00;;;;;12.11;38.73;97873.03;6135962;28;99516;-65
2021/11/25 15:35:06;;;;;;;;;42.75;33.25;;;;;12.05;38.64;97863.25;6151343;28;96956;-65
2021/11/25 15:38:13;;;;;;;;;42.40;32.00;;;;;11.93;39.00;97865.28;6153170;28;96753;-67
2021/11/25 15:41:17;;;;;;;;;43.40;35.00;;;;;11.86;38.79;97867.38;6153015;28;98064;-65
2021/11/25 15:44:21;;;;;;;;;43.20;35.00;;;;;11.74;39.23;97855.91;6136205;28;98671;-68
2021/11/25 15:47:26;;;;;;;;;39.00;32.20;;;;;11.66;39.21;97867.13;6148550;28;97975;-65
2021/11/25 15:50:29;;;;;;;;;40.40;33.00;;;;;11.58;39.38;97844.09;6131811;28;97401;-67
2021/11/25 15:53:33;;;;;;;;;38.60;32.60;;;;;11.50;39.66;97857.22;6144585;28;98372;-64
2021/11/25 15:56:36;;;;;;;;;41.00;33.00;;;;;11.41;39.63;97853.34;6152851;28;98409;-68
2021/11/25 15:59:40;;;;;;;;;40.33;33.00;;;;;11.34;40.02;97868.91;6128759;28;97489;-65
2021/11/25 16:02:45;;;;;;;;;40.75;33.00;;;;;11.23;40.21;97860.69;6134713;28;98755;-67
2021/11/25 16:05:49;;;;;;;;;41.00;33.60;;;;;11.15;40.28;97861.13;6129461;28;96810;-66
2021/11/25 16:08:52;;;;;;;;;41.50;35.00;;;;;11.16;40.35;97859.25;6132122;28;98088;-64
2021/11/25 16:11:56;;;;;;;;;39.00;33.00;;;;;11.12;40.22;97867.03;6131774;28;97703;-67
2021/11/25 16:14:59;;;;;;;;;43.40;35.00;;;;;11.11;40.10;97873.47;6137630;28;99635;-65
2021/11/25 16:18:04;;;;;;;;;41.40;33.60;;;;;11.09;39.97;97872.91;6152114;28;97855;-65
2021/11/25 16:21:08;;;;;;;;;40.00;33.00;;;;;11.04;40.22;97878.25;6134597;28;97342;-69
2021/11/25 16:24:11;;;;;;;;;45.20;35.00;;;;;10.91;40.47;97870.50;6157558;28;97797;-64
2021/11/25 16:27:15;;;;;;;;;38.00;32.60;;;;;10.83;40.78;97877.16;6157435;28;98479;-64
2021/11/25 16:30:19;;;;;;;;;41.00;34.00;;;;;10.75;40.75;97876.75;6139242;28;98425;-65
2021/11/25 16:33:24;;;;;;;;;44.80;35.00;;;;;10.68;41.00;97870.72;6155758;28;97427;-68
2021/11/25 16:36:28;;;;;;;;;44.00;33.40;;;;;10.62;41.38;97872.50;6156250;28;97328;-64
2021/11/25 16:39:32;;;;;;;;;40.60;35.00;;;;;10.53;41.42;97874.00;6156687;28;98535;-66
2021/11/25 16:42:36;;;;;;;;;45.20;34.80;;;;;10.46;41.50;97878.72;6156826;28;99245;-67
2021/11/25 16:45:40;;;;;;;;;43.00;35.00;;;;;10.31;42.24;97879.28;6149281;28;98698;-66
2021/11/25 16:48:44;;;;;;;;;42.80;35.00;;;;;10.17;42.35;97879.84;6124808;28;98413;-67
2021/11/25 16:51:48;;;;;;;;;42.00;34.00;;;;;10.07;42.21;97876.97;6145399;28;98638;-64
2021/11/25 16:54:53;;;;;;;;;43.00;35.00;;;;;10.00;42.14;97880.63;6138458;28;97453;-66
2021/11/25 16:57:56;;;;;;;;;44.00;35.00;;;;;9.92;42.43;97880.22;6155244;28;97447;-62
2021/11/25 17:01:00;;;;;;;;;43.80;35.40;;;;;9.84;42.60;97873.31;6138646;28;98150;-65
2021/11/25 17:04:10;;;;;;;;;45.00;34.25;;;;;9.80;42.67;97880.25;6155737;28;97724;-63
2021/11/25 17:07:14;;;;;;;;;42.75;35.00;;;;;9.80;42.86;97877.56;6138664;28;98451;-64
2021/11/25 17:10:18;;;;;;;;;41.00;35.00;;;;;9.77;42.99;97871.84;6141386;28;99471;-67
2021/11/25 17:13:21;;;;;;;;;43.00;36.00;;;;;9.75;43.08;97872.09;6133892;28;98597;-66
2021/11/25 17:16:25;;;;;;;;;41.80;34.00;;;;;9.75;43.18;97887.41;6135760;28;97911;-65
2021/11/25 17:19:30;;;;;;;;;45.00;35.00;;;;;9.75;43.27;97888.22;6152464;28;97510;-66
2021/11/25 17:22:33;;;;;;;;;41.80;36.00;;;;;9.77;43.55;97885.31;6154880;28;97331;-66
2021/11/25 17:25:36;;;;;;;;;48.25;39.00;;;;;9.74;43.70;97883.91;6154015;28;96967;-65
2021/11/25 17:28:43;;;;;;;;;47.00;37.00;;;;;9.74;43.81;97885.78;6154347;28;97622;-64
2021/11/25 17:31:46;;;;;;;;;45.50;36.00;;;;;9.61;43.77;97878.00;6134921;28;98138;-65
2021/11/25 17:34:51;;;;;;;;;45.00;35.00;;;;;9.42;43.88;97882.75;6154438;28;97374;-64
2021/11/25 17:37:54;;;;;;;;;43.40;36.00;;;;;9.32;43.68;97879.84;6137484;28;98218;-65
2021/11/25 17:40:59;;;;;;;;;45.80;37.80;;;;;9.18;43.92;97870.41;6134556;28;98321;-66
2021/11/25 17:44:02;;;;;;;;;46.60;35.00;;;;;9.19;43.76;97872.84;6153610;28;97285;-66
2021/11/25 17:47:06;;;;;;;;;48.00;39.00;;;;;9.12;43.89;97877.56;6135105;28;97720;-67
2021/11/25 17:50:11;;;;;;;;;47.00;36.00;;;;;9.06;44.21;97878.50;6156719;28;98089;-65
2021/11/25 17:53:14;;;;;;;;;43.00;35.00;;;;;8.97;43.90;97875.34;6152319;28;98616;-67
2021/11/25 17:56:18;;;;;;;;;50.80;37.60;;;;;8.97;44.06;97872.66;6152277;28;98009;-65
2021/11/25 17:59:21;;;;;;;;;47.00;38.00;;;;;8.96;43.94;97872.88;6149553;28;98168;-67
2021/11/25 18:02:24;;;;;;;;;49.00;39.60;;;;;8.96;43.73;97876.41;6159558;28;97183;-65
2021/11/25 18:05:31;;;;;;;;;52.00;39.20;;;;;8.72;44.15;97839.03;6138460;28;100151;-65
2021/11/25 18:08:34;;;;;;;;;49.40;40.00;;;;;8.95;44.03;97866.69;6146137;28;97562;-65
2021/11/25 18:11:38;;;;;;;;;51.25;40.75;;;;;8.98;44.08;97866.25;6147055;28;97563;-66
2021/11/25 18:14:42;;;;;;;;;49.00;40.00;;;;;9.01;43.97;97868.44;6150343;28;97828;-66
2021/11/25 18:17:48;;;;;;;;;51.00;41.00;;;;;9.01;44.08;97871.13;6129960;28;98344;-64
2021/11/25 18:20:53;;;;;;;;;51.20;41.20;;;;;9.04;44.16;97872.56;6155181;28;97238;-64
2021/11/25 18:23:57;;;;;;;;;54.25;42.25;;;;;8.96;44.34;97870.19;6134421;28;96796;-66
2021/11/25 18:27:00;;;;;;;;;51.40;40.00;;;;;8.86;44.37;97878.03;6154370;28;96727;-65
2021/11/25 18:30:05;;;;;;;;;50.00;40.00;;;;;8.77;44.44;97882.13;6154064;28;97655;-67
2021/11/25 18:33:08;;;;;;;;;51.20;41.00;;;;;8.68;44.51;97874.44;6129604;28;98570;-67
2021/11/25 18:36:15;;;;;;;;;49.80;40.00;;;;;8.60;44.40;97871.31;6132114;28;100557;-63
2021/11/25 18:39:18;;;;;;;;;53.40;41.80;;;;;8.50;44.74;97879.13;6138010;28;97493;-62
2021/11/25 18:42:21;;;;;;;;;50.00;41.00;;;;;8.43;44.98;97876.53;6154222;28;97024;-62
2021/11/25 18:45:27;;;;;;;;;52.00;42.00;;;;;8.40;45.26;97879.69;6154568;28;96666;-62
2021/11/25 18:48:34;;;;;;;;;50.80;41.40;;;;;8.41;45.67;97875.13;6154067;28;97341;-65
2021/11/25 18:51:39;;;;;;;;;57.00;43.80;;;;;8.47;45.24;97879.56;6139766;28;98330;-65
2021/11/25 18:54:44;;;;;;;;;56.00;44.00;;;;;8.44;44.99;97864.75;6155774;28;97183;-63
2021/11/25 18:57:47;;;;;;;;;58.00;45.00;;;;;8.54;45.03;97858.78;6154814;28;97476;-65
2021/11/25 19:00:52;;;;;;;;;55.20;43.20;;;;;8.60;44.83;97865.94;6156293;28;97230;-63
2021/11/25 19:03:56;;;;;;;;;58.50;46.50;;;;;8.63;44.75;97865.44;6155445;28;97463;-64
2021/11/25 19:07:01;;;;;;;;;60.60;46.00;;;;;8.65;44.59;97876.75;6151116;28;97244;-64
2021/11/25 19:10:10;;;;;;;;;61.00;47.25;;;;;8.71;44.55;97878.53;6158476;28;97382;-65
2021/11/25 19:13:13;;;;;;;;;62.00;48.00;;;;;8.77;44.42;97880.28;6141709;28;97068;-63
2021/11/25 19:16:17;;;;;;;;;60.75;47.50;;;;;8.79;44.50;97874.69;6158297;28;97447;-63
2021/11/25 19:19:21;;;;;;;;;63.00;48.75;;;;;8.66;44.41;97846.97;6161192;28;96610;-62
2021/11/25 19:22:27;;;;;;;;;60.80;47.40;;;;;8.82;44.46;97864.25;6153071;28;96606;-63
2021/11/25 19:25:30;;;;;;;;;60.00;47.60;;;;;8.85;44.25;97873.72;6134013;28;99219;-63
2021/11/25 19:28:34;;;;;;;;;63.00;48.50;;;;;8.81;44.23;97877.94;6151301;28;97139;-62
2021/11/25 19:31:37;;;;;;;;;65.00;48.40;;;;;8.79;44.26;97877.38;6151648;28;98578;-64
2021/11/25 19:34:41;;;;;;;;;63.50;49.00;;;;;8.79;44.47;97874.69;6143413;28;97542;-63
2021/11/25 19:37:46;;;;;;;;;62.80;48.00;;;;;8.81;44.45;97881.44;6159375;28;97212;-63
2021/11/25 19:40:51;;;;;;;;;66.40;51.00;;;;;8.83;44.20;97878.53;6137233;28;96937;-64